Latest Coastal Weather Observations for Hogan Island

IDV60701

Issued at 4:15 am EST Tuesday 29 July 2014 (issued every 10 minutes, with the page automatically refreshed every 10 minutes)

About coastal observations | Map of coastal stations | Coastal observations for VIC | Marine services | Other Formats
Station Details ID: 200838 Name: HOGAN ISLAND Lat: -39.22 Lon: 146.98 Height: 116.0 m
Data from the previous 72 hours. | See also: Recent months at Hogan Island
Date/Time
EST
Temp

°C
Wind Pressure Rain
since 9am
mm
Weather Cloud Vis
km
Sea
Height
m
Swell
Dir
 
Speed
knots
Gust
knots
hPa Trend Height
m
Period
s
Dir
29/04:00am 13.0 WNW 32 39 1005.4 - 0.0 - - - - - - -
29/03:30am 12.8 NW 29 38 1005.6 - 0.0 - - - - - - -
29/03:13am 12.8 NW 31 41 1005.8 - 0.0 - - - - - - -
29/03:00am 12.9 NW 31 38 1006.1 - 0.0 - - - - - - -
29/02:30am 13.2 WNW 35 42 1006.2 - 0.0 - - - - - - -
29/02:00am 13.2 WNW 33 39 1006.9 - 0.0 - - - - - - -
29/01:30am 13.2 WNW 34 41 1007.2 - 0.0 - - - - - - -
29/01:00am 13.4 WNW 34 42 1007.5 - 0.0 - - - - - - -
29/12:30am 13.5 WNW 37 43 1007.7 - 0.0 - - - - - - -
29/12:00am 13.6 WNW 36 42 1008.0 - 0.0 - - - - - - -
 
Date/Time
EST
Temp

°C
Wind Pressure Rain
since 9am
mm
Weather Cloud Vis
km
Sea
Height
m
Swell
Dir
 
Speed
knots
Gust
knots
hPa Trend Height
m
Period
s
Dir
28/11:30pm 13.3 WNW 36 41 1008.3 - 0.0 - - - - - - -
28/11:00pm 13.4 WNW 36 42 1008.4 - 0.0 - - - - - - -
28/10:30pm 13.6 WNW 36 41 1008.6 - 0.0 - - - - - - -
28/10:00pm 13.5 WNW 33 40 1008.8 - 0.0 - - - - - - -
28/09:30pm 13.3 NW 30 38 1009.4 - 0.0 - - - - - - -
28/09:28pm 13.3 WNW 31 41 1009.3 - 0.0 - - - - - - -
28/09:00pm 13.4 WNW 34 41 1009.3 - 0.0 - - - - - - -
28/08:30pm 13.2 WNW 26 32 1009.5 - 0.0 - - - - - - -
28/08:00pm 13.5 WNW 32 36 1009.2 - 0.0 - - - - - - -
28/07:30pm 13.8 WNW 32 37 1009.0 - 0.0 - - - - - - -
28/07:00pm 13.9 WNW 30 36 1009.0 - 0.0 - - - - - - -
28/06:30pm 14.2 WNW 27 32 1009.5 - 0.0 - - - - - - -
28/06:22pm 14.4 WNW 29 32 1009.5 - 0.0 - - - - - - -
28/06:00pm 13.6 WNW 16 21 1009.9 - 0.0 - - - - - - -
28/05:30pm 13.5 NW 14 18 1009.5 - 0.0 - - - - - - -
28/05:00pm 14.2 WNW 16 19 1009.8 - 0.0 - - - - - - -
28/04:30pm 14.5 WNW 18 20 1009.8 - 0.0 - - - - - - -
28/04:00pm 14.8 WNW 13 17 1010.0 - 0.0 - - - - - - -
28/03:30pm 15.2 WNW 13 16 1010.2 - 0.0 - - - - - - -
28/03:00pm 15.5 WNW 15 18 1010.4 - 0.0 - - - - - - -
28/02:30pm 15.2 WNW 20 23 1010.3 - 0.0 - - - - - - -
28/02:00pm 15.7 WNW 20 23 1010.3 - 0.0 - - - - - - -
28/01:30pm 15.6 WNW 12 15 1011.0 - 0.0 - - - - - - -
28/01:00pm 15.5 NW 15 19 1011.3 - 0.0 - - - - - - -
28/12:30pm 15.4 NW 20 25 1011.7 - 0.0 - - - - - - -
28/12:00pm 15.2 NW 23 29 1012.1 - 0.0 - - - - - - -
28/11:30am 14.8 NW 23 31 1012.2 - 0.0 - - - - - - -
28/11:25am 14.7 NW 23 33 1012.3 - 0.0 - - - - - - -
28/11:00am 14.1 NW 23 29 1012.5 - 0.0 - - - - - - -
28/10:30am 13.9 WNW 26 33 1012.7 - 0.0 - - - - - - -
28/10:00am 13.7 NW 26 31 1012.8 - 0.0 - - - - - - -
28/09:30am 13.6 WNW 28 34 1012.6 - 0.0 - - - - - - -
28/09:00am 12.8 NW 24 29 1013.0 - 0.0 - - - - - - -
28/08:30am 13.0 NW 26 33 1013.1 - 0.0 - - - - - - -
28/08:00am 12.8 NW 27 34 1013.4 - 0.0 - - - - - - -
28/07:30am 12.7 NW 28 34 1013.4 - 0.0 - - - - - - -
28/07:00am 12.7 NW 27 37 1013.3 - 0.0 - - - - - - -
28/06:30am 12.6 WNW 30 35 1013.0 - 0.0 - - - - - - -
28/06:00am 12.9 WNW 37 43 1012.8 - 0.0 - - - - - - -
28/05:30am 12.9 WNW 36 43 1012.7 - 0.0 - - - - - - -
28/05:00am 13.0 WNW 36 41 1012.5 - 0.0 - - - - - - -
28/04:30am 12.6 NW 27 36 1013.4 - 0.0 - - - - - - -
28/04:28am 12.7 NW 26 36 1013.4 - 0.0 - - - - - - -
28/04:00am 12.6 WNW 28 35 1013.8 - 0.0 - - - - - - -
28/03:30am 12.6 NW 25 33 1014.2 - 0.0 - - - - - - -
28/03:00am 12.5 NW 24 33 1014.8 - 0.0 - - - - - - -
28/02:30am 12.2 NW 23 28 1015.2 - 0.0 - - - - - - -
28/02:00am 12.1 NW 25 31 1015.5 - 0.0 - - - - - - -
28/01:30am 12.0 NW 24 33 1015.4 - 0.0 - - - - - - -
28/01:25am 12.1 NW 23 33 1015.4 - 0.0 - - - - - - -
28/01:00am 12.3 WNW 34 39 1014.9 - 0.0 - - - - - - -
28/12:30am 12.2 WNW 29 35 1015.6 - 0.0 - - - - - - -
28/12:00am 12.2 WNW 30 35 1016.0 - 0.0 - - - - - - -
 
Date/Time
EST
Temp

°C
Wind Pressure Rain
since 9am
mm
Weather Cloud Vis
km
Sea
Height
m
Swell
Dir
 
Speed
knots
Gust
knots
hPa Trend Height
m
Period
s
Dir
27/11:30pm 12.4 WNW 31 37 1016.1 - 0.0 - - - - - - -
27/11:00pm 12.1 WNW 27 33 1016.7 - 0.0 - - - - - - -
27/10:30pm 11.9 NW 22 28 1017.5 - 0.0 - - - - - - -
27/10:00pm 12.0 NW 24 31 1017.4 - 0.0 - - - - - - -
27/09:30pm 11.9 NW 24 29 1017.9 - 0.0 - - - - - - -
27/09:00pm 11.8 NW 20 25 1018.4 - 0.0 - - - - - - -
27/08:30pm 12.1 NW 24 29 1018.1 - 0.0 - - - - - - -
27/08:00pm 12.1 NW 25 32 1018.0 - 0.0 - - - - - - -
27/07:30pm 12.2 WNW 24 29 1018.2 - 0.0 - - - - - - -
27/07:00pm 12.5 WNW 24 29 1018.5 - 0.0 - - - - - - -
27/06:30pm 12.4 NW 20 25 1018.5 - 0.0 - - - - - - -
27/06:00pm 12.7 WNW 27 31 1018.4 - 0.0 - - - - - - -
27/05:30pm 12.6 WNW 26 31 1018.2 - 0.0 - - - - - - -
27/05:29pm 12.6 WNW 25 31 1018.2 - 0.0 - - - - - - -
27/05:00pm 12.3 NW 17 21 1018.5 - 0.0 - - - - - - -
27/04:30pm 12.6 WNW 17 22 1018.6 - 0.0 - - - - - - -
27/04:00pm 12.5 WNW 21 24 1018.8 - 0.0 - - - - - - -
27/03:30pm 12.7 WNW 22 26 1018.9 - 0.0 - - - - - - -
27/03:00pm 12.9 WNW 24 28 1019.2 - 0.0 - - - - - - -
27/02:30pm 12.9 WNW 19 21 1019.2 - 0.0 - - - - - - -
27/02:00pm 13.2 WNW 19 23 1019.5 - 0.0 - - - - - - -
27/01:30pm 12.7 NW 17 22 1019.7 - 0.0 - - - - - - -
27/01:00pm 12.4 WNW 17 23 1020.0 - 0.0 - - - - - - -
27/12:30pm 12.8 NW 15 19 1020.6 - 0.0 - - - - - - -
27/12:00pm 12.0 WNW 16 18 1021.3 - 0.0 - - - - - - -
27/11:30am 12.5 WNW 17 20 1021.8 - 0.0 - - - - - - -
27/11:00am 11.9 WNW 19 22 1022.2 - 0.0 - - - - - - -
27/10:30am 11.6 WNW 18 21 1022.6 - 0.0 - - - - - - -
27/10:00am 11.9 WNW 19 22 1022.7 - 0.0 - - - - - - -
27/09:30am 11.8 WNW 19 22 1022.7 - 0.0 - - - - - - -
27/09:00am 11.8 WNW 18 22 1022.9 - 0.8 - - - - - - -
27/08:30am 12.1 W 19 24 1022.7 - 0.8 - - - - - - -
27/08:00am 11.7 W 19 22 1022.7 - 0.8 - - - - - - -
27/07:30am 11.7 W 19 22 1022.5 - 0.8 - - - - - - -
27/07:00am 11.5 W 20 23 1022.4 - 0.8 - - - - - - -
27/06:30am 11.8 W 22 26 1022.0 - 0.8 - - - - - - -
27/06:00am 11.9 W 20 23 1021.9 - 0.8 - - - - - - -
27/05:30am 12.0 W 19 22 1021.7 - 0.8 - - - - - - -
27/05:00am 11.7 W 18 20 1021.8 - 0.8 - - - - - - -
27/04:30am 11.8 W 19 21 1021.9 - 0.8 - - - - - - -
27/04:00am 11.8 W 22 24 1021.9 - 0.8 - - - - - - -
27/03:30am 11.7 W 19 20 1021.9 - 0.8 - - - - - - -
27/03:00am 11.8 W 18 21 1022.0 - 0.8 - - - - - - -
27/02:30am 11.8 W 18 21 1022.1 - 0.8 - - - - - - -
27/02:00am 11.6 W 19 23 1022.0 - 0.8 - - - - - - -
27/01:30am 11.7 WSW 19 22 1022.2 - 0.8 - - - - - - -
27/01:00am 11.6 WSW 19 23 1022.2 - 0.8 - - - - - - -
27/12:30am 11.7 W 20 23 1022.4 - 0.8 - - - - - - -
27/12:00am 11.8 W 22 25 1022.6 - 0.8 - - - - - - -
 
Date/Time
EST
Temp

°C
Wind Pressure Rain
since 9am
mm
Weather Cloud Vis
km
Sea
Height
m
Swell
Dir
 
Speed
knots
Gust
knots
hPa Trend Height
m
Period
s
Dir
26/11:30pm 11.9 W 21 24 1022.5 - 0.8 - - - - - - -
26/11:00pm 11.6 W 19 22 1022.6 - 0.8 - - - - - - -
26/10:30pm 11.5 W 19 21 1022.5 - 0.8 - - - - - - -
26/10:00pm 11.6 WSW 19 23 1022.4 - 0.8 - - - - - - -
26/09:30pm 11.7 WSW 20 24 1022.3 - 0.8 - - - - - - -
26/09:00pm 11.4 WSW 19 22 1022.2 - 0.8 - - - - - - -
26/08:30pm 11.6 WSW 20 23 1021.7 - 0.8 - - - - - - -
26/08:00pm 12.0 WSW 20 23 1021.5 - 0.8 - - - - - - -
26/07:30pm 12.1 WSW 22 25 1021.4 - 0.8 - - - - - - -
26/07:00pm 12.1 WSW 20 23 1021.2 - 0.8 - - - - - - -
26/06:30pm 12.2 W 20 23 1020.8 - 0.8 - - - - - - -
26/06:00pm 12.2 WSW 20 23 1020.6 - 0.8 - - - - - - -
26/05:30pm 12.2 WSW 19 22 1020.3 - 0.8 - - - - - - -
26/05:00pm 12.1 WSW 22 25 1019.9 - 0.8 - - - - - - -
26/04:30pm 12.3 WSW 24 27 1019.5 - 0.8 - - - - - - -
26/04:00pm 12.3 W 24 27 1019.2 - 0.8 - - - - - - -
26/03:30pm 12.4 W 22 25 1018.9 - 0.8 - - - - - - -
26/03:00pm 12.3 W 22 25 1018.8 - 0.8 - - - - - - -
26/02:30pm 13.1 W 24 29 1018.3 - 0.4 - - - - - - -
26/02:00pm 12.4 WNW 24 28 1018.2 - 0.4 - - - - - - -
26/01:30pm 11.6 WNW 19 23 1018.5 - 0.4 - - - - - - -
26/01:00pm 11.9 WNW 22 26 1018.8 - 0.2 - - - - - - -
26/12:30pm 12.0 WNW 22 25 1019.1 - 0.2 - - - - - - -
26/12:00pm 11.8 WNW 22 27 1019.6 - 0.2 - - - - - - -
26/11:30am 11.9 WNW 19 24 1019.9 - 0.0 - - - - - - -
26/11:00am 11.6 NW 19 24 1020.2 - 0.0 - - - - - - -
26/10:30am 11.9 WNW 19 24 1020.3 - 0.0 - - - - - - -
26/10:00am 11.7 NW 19 24 1020.4 - 0.0 - - - - - - -
26/09:30am 11.6 NW 19 24 1020.4 - 0.0 - - - - - - -
26/09:00am 11.8 WNW 20 24 1020.3 - 0.0 - - - - - - -
26/08:30am 11.9 NW 22 27 1019.9 - 0.0 - - - - - - -
26/08:00am 12.0 NW 19 25 1019.9 - 0.0 - - - - - - -
26/07:30am 11.9 WNW 18 23 1019.7 - 0.0 - - - - - - -
26/07:00am 11.9 NW 18 24 1019.4 - 0.0 - - - - - - -
26/06:30am 12.0 WNW 23 28 1019.0 - 0.0 - - - - - - -
26/06:00am 12.1 WNW 22 29 1019.0 - 0.0 - - - - - - -
26/05:30am 12.1 WNW 20 25 1018.7 - 0.0 - - - - - - -
26/05:00am 12.3 WNW 22 27 1018.4 - 0.0 - - - - - - -
26/04:30am 12.3 WNW 24 28 1018.3 - 0.0 - - - - - - -

Other Formats:

Comma delimited format used in spreadsheet applications
http://www.bom.gov.au/fwo/IDV60701/IDV60701.94949.axf

JavaScript Object Notation format (JSON) in row-major order
http://www.bom.gov.au/fwo/IDV60701/IDV60701.94949.json